Taneyville, Missouri
Current Conditions -  °F | °C
As of 9:50 AM on Friday 31 Oct 2014 (Local Time) from KBBG Reporting Station
Overcast Overcast  
Wind Chill:   Ceiling: 2300
Heat Index:   Visibility: 10mi
Dew Point:   Wind: 14mph
Humidity: 66%   Direction: 340°NNW
Pressure: 30.3"   Gusts: 18mph
Location:  36.74°N, 93.03°W
Report Text: KBBG 311450Z 34012G16KT 10SM OVC023 09/03 A3030
Loading
Personal Weather Stations






























Interactive Weather Map
Tropical Storm Tracking
New forecast layout! Learn more

10-Day Weather Forecast

Advertisements
Track Severe Weather on mobile